createdAt,value
2018-05-24T00:02:16.996Z,101056
2018-05-24T00:04:45.216Z,101050
2018-05-24T00:07:13.627Z,101044
2018-05-24T00:09:41.886Z,101053
2018-05-24T00:14:44.548Z,101052
2018-05-24T00:17:12.755Z,101035
2018-05-24T00:19:40.949Z,101030
2018-05-24T00:22:09.908Z,101041
2018-05-24T00:24:38.146Z,101030
2018-05-24T00:27:07.252Z,101026
2018-05-24T00:29:36.582Z,101030
2018-05-24T00:32:06.885Z,101026
2018-05-24T00:34:35.091Z,101024
2018-05-24T00:37:04.247Z,101029
2018-05-24T00:39:32.485Z,101018
2018-05-24T00:42:00.689Z,101031
2018-05-24T00:44:28.928Z,101030
2018-05-24T00:46:57.165Z,101018
2018-05-24T00:49:25.341Z,101010
2018-05-24T00:51:53.536Z,101020
2018-05-24T00:54:22.609Z,100996
2018-05-24T00:56:50.787Z,101011
2018-05-24T00:59:19.589Z,101002
2018-05-24T01:01:47.882Z,101004
2018-05-24T01:04:16.074Z,101006
2018-05-24T01:06:45.066Z,100998
2018-05-24T01:09:14.044Z,100996
2018-05-24T01:11:42.253Z,100993
2018-05-24T01:14:10.442Z,101000
2018-05-24T01:16:39.484Z,100988
2018-05-24T01:19:07.730Z,101002
2018-05-24T01:21:35.911Z,100995
2018-05-24T01:24:04.133Z,100987
2018-05-24T01:26:32.316Z,100996
2018-05-24T01:29:01.447Z,101001
2018-05-24T01:31:29.726Z,100986
2018-05-24T01:33:57.899Z,100991
2018-05-24T01:36:43.685Z,100992
2018-05-24T01:39:11.935Z,101002
2018-05-24T01:41:40.133Z,101040
2018-05-24T01:44:08.365Z,101025
2018-05-24T01:46:36.657Z,101030
2018-05-24T01:49:05.653Z,101052
2018-05-24T01:51:33.928Z,101036
2018-05-24T01:54:02.133Z,101049
2018-05-24T01:56:31.179Z,101047
2018-05-24T01:59:01.166Z,101036
2018-05-24T02:01:29.361Z,101040
2018-05-24T02:03:58.164Z,101035
2018-05-24T02:06:26.397Z,101030
2018-05-24T02:08:54.581Z,101038
2018-05-24T02:11:22.806Z,101033
2018-05-24T02:13:51.009Z,101034
2018-05-24T02:16:19.201Z,101024
2018-05-24T02:18:47.573Z,101010
2018-05-24T02:21:15.753Z,101010
2018-05-24T02:23:44.017Z,101006
2018-05-24T02:26:13.134Z,101003
2018-05-24T02:28:41.313Z,100998
2018-05-24T02:31:09.561Z,100988
2018-05-24T02:33:38.014Z,100992
2018-05-24T02:36:07.480Z,100993
2018-05-24T02:38:35.488Z,100987
2018-05-24T02:41:03.877Z,100985
2018-05-24T02:43:33.170Z,100985
2018-05-24T02:46:01.379Z,100988
2018-05-24T02:48:32.156Z,100985
2018-05-24T02:51:00.354Z,100973
2018-05-24T02:53:28.559Z,100979
2018-05-24T02:55:56.788Z,100981
2018-05-24T02:58:25.752Z,100982
2018-05-24T03:00:53.925Z,100995
2018-05-24T03:03:22.146Z,100994
2018-05-24T03:05:50.404Z,100991
2018-05-24T03:08:18.600Z,100990
2018-05-24T03:10:46.795Z,100985
2018-05-24T03:13:14.988Z,100991
2018-05-24T03:15:43.536Z,100994
2018-05-24T03:18:11.749Z,100992
2018-05-24T03:20:40.771Z,100972
2018-05-24T03:23:08.983Z,100981
2018-05-24T03:25:37.868Z,100966
2018-05-24T03:28:06.174Z,100958
2018-05-24T03:30:34.367Z,100963
2018-05-24T03:33:02.894Z,100962
2018-05-24T03:35:31.156Z,100965
2018-05-24T03:38:03.181Z,100967
2018-05-24T03:40:32.841Z,100969
2018-05-24T03:43:02.689Z,100962
2018-05-24T03:45:30.939Z,100955
2018-05-24T03:47:59.302Z,100953
2018-05-24T03:50:27.581Z,100954
2018-05-24T03:52:56.716Z,100959
2018-05-24T03:55:24.893Z,100945
2018-05-24T03:57:53.160Z,100950
2018-05-24T04:00:39.056Z,100938
2018-05-24T04:03:25.134Z,100946
2018-05-24T04:05:53.911Z,100951
2018-05-24T04:08:22.886Z,100950
2018-05-24T04:10:52.046Z,100955
2018-05-24T04:13:20.245Z,100960
2018-05-24T04:15:48.429Z,100954
2018-05-24T04:18:18.110Z,100949
2018-05-24T04:20:46.473Z,100954
2018-05-24T04:23:14.696Z,100952
2018-05-24T04:25:43.739Z,100945
2018-05-24T04:28:11.953Z,100950
2018-05-24T04:30:41.013Z,100957
2018-05-24T04:33:09.184Z,100958
2018-05-24T04:35:37.384Z,100953
2018-05-24T04:38:05.561Z,100961
2018-05-24T04:40:33.756Z,100965
2018-05-24T04:43:01.952Z,100953
2018-05-24T04:45:30.233Z,100961
2018-05-24T04:47:58.384Z,100960
2018-05-24T04:50:26.610Z,100962
2018-05-24T04:52:54.791Z,100960
2018-05-24T04:55:22.996Z,100968
2018-05-24T04:57:51.252Z,100968
2018-05-24T05:00:19.741Z,100975
2018-05-24T05:02:47.928Z,100973
2018-05-24T05:05:16.929Z,100972
2018-05-24T05:07:45.131Z,100971
2018-05-24T05:10:13.307Z,100961
2018-05-24T05:12:41.484Z,100955
2018-05-24T05:15:09.680Z,100965
2018-05-24T05:17:39.514Z,100961
2018-05-24T05:20:07.707Z,100966
2018-05-24T05:22:35.917Z,100963
2018-05-24T05:25:04.165Z,100960
2018-05-24T05:27:32.450Z,100958
2018-05-24T05:30:00.668Z,100966
2018-05-24T05:32:28.875Z,100963
2018-05-24T05:34:57.352Z,100973
2018-05-24T05:37:25.557Z,100979
2018-05-24T05:39:53.751Z,100969
2018-05-24T05:42:21.929Z,100970
2018-05-24T05:44:51.848Z,100950
2018-05-24T05:47:20.084Z,100963
2018-05-24T05:49:48.257Z,100958
2018-05-24T05:52:16.491Z,100963
2018-05-24T05:54:44.997Z,100971
2018-05-24T05:57:13.166Z,100974
2018-05-24T05:59:41.417Z,100974
2018-05-24T06:02:10.724Z,100965
2018-05-24T06:04:38.915Z,100975
2018-05-24T06:07:07.145Z,100979
2018-05-24T06:09:35.431Z,100969
2018-05-24T06:12:03.646Z,100972
2018-05-24T06:14:31.848Z,100975
2018-05-24T06:17:00.067Z,100967
2018-05-24T06:19:28.270Z,100965
2018-05-24T06:21:57.972Z,100963
2018-05-24T06:24:26.976Z,100958
2018-05-24T06:26:55.390Z,100949
2018-05-24T06:29:24.369Z,100946
2018-05-24T06:31:52.560Z,100941
2018-05-24T06:34:20.776Z,100928
2018-05-24T06:36:48.994Z,100938
2018-05-24T06:39:17.199Z,100949
2018-05-24T06:41:45.393Z,100951
2018-05-24T06:44:13.611Z,100952
2018-05-24T06:46:41.799Z,100964
2018-05-24T06:49:10.752Z,100967
2018-05-24T06:51:39.042Z,100972
2018-05-24T06:54:07.305Z,100972
2018-05-24T06:56:35.748Z,100976
2018-05-24T06:59:03.972Z,100983
2018-05-24T07:01:32.152Z,100964
2018-05-24T07:04:00.416Z,100950
2018-05-24T07:06:28.787Z,100963
2018-05-24T07:08:56.984Z,100957
2018-05-24T07:11:25.172Z,100951
2018-05-24T07:13:55.147Z,100951
2018-05-24T07:16:24.120Z,100949
2018-05-24T07:18:52.375Z,100947
2018-05-24T07:21:20.578Z,100944
2018-05-24T07:23:49.247Z,100953
2018-05-24T07:26:17.568Z,100951
2018-05-24T07:28:45.783Z,100955
2018-05-24T07:31:15.553Z,100957
2018-05-24T07:33:43.732Z,100959
2018-05-24T07:36:11.979Z,100962
2018-05-24T07:38:41.309Z,100963
2018-05-24T07:41:09.521Z,100957
2018-05-24T07:43:37.735Z,100941
2018-05-24T07:46:05.928Z,100950
2018-05-24T07:48:34.123Z,100961
2018-05-24T07:51:03.104Z,100965
2018-05-24T07:53:31.312Z,100949
2018-05-24T07:55:59.509Z,100952
2018-05-24T07:58:27.712Z,100944
2018-05-24T08:00:55.919Z,100940
2018-05-24T08:03:24.116Z,100934
2018-05-24T08:05:53.939Z,100927
2018-05-24T08:08:22.124Z,100931
2018-05-24T08:10:50.962Z,100926
2018-05-24T08:13:19.243Z,100927
2018-05-24T08:15:48.637Z,100917
2018-05-24T08:18:16.919Z,100919
2018-05-24T08:20:45.180Z,100917
2018-05-24T08:23:13.364Z,100927
2018-05-24T08:25:41.982Z,100935
2018-05-24T08:28:10.209Z,100929
2018-05-24T08:30:38.380Z,100935
2018-05-24T08:33:06.553Z,100929
2018-05-24T08:35:34.784Z,100928
2018-05-24T08:38:03.752Z,100927
2018-05-24T08:40:32.018Z,100924
2018-05-24T08:43:00.344Z,100907
2018-05-24T08:45:28.552Z,100911
2018-05-24T08:47:56.763Z,100912
2018-05-24T08:50:25.005Z,100910
2018-05-24T08:52:53.189Z,100909
2018-05-24T08:55:21.444Z,100894
2018-05-24T08:57:49.670Z,100885
2018-05-24T09:00:18.329Z,100895
2018-05-24T09:02:46.524Z,100895
2018-05-24T09:05:14.732Z,100882
2018-05-24T09:07:44.594Z,100878
2018-05-24T09:10:12.773Z,100882
2018-05-24T09:12:40.974Z,100893
2018-05-24T09:15:09.180Z,100891
2018-05-24T09:17:37.365Z,100887
2018-05-24T09:20:05.585Z,100890
2018-05-24T09:22:33.779Z,100881
2018-05-24T09:25:02.794Z,100893
2018-05-24T09:27:30.992Z,100890
2018-05-24T09:29:59.193Z,100891
2018-05-24T09:32:27.369Z,100889
2018-05-24T09:34:55.581Z,100883
2018-05-24T09:37:23.791Z,100883
2018-05-24T09:39:51.990Z,100885
2018-05-24T09:42:20.253Z,100894
2018-05-24T09:44:49.060Z,100886
2018-05-24T09:47:19.984Z,100884
2018-05-24T09:49:48.174Z,100887
2018-05-24T09:52:16.847Z,100879
2018-05-24T09:54:45.048Z,100881
2018-05-24T09:57:13.280Z,100878
2018-05-24T09:59:41.470Z,100870
2018-05-24T10:02:09.670Z,100863
2018-05-24T10:04:37.871Z,100878
2018-05-24T10:07:06.470Z,100878
2018-05-24T10:09:35.515Z,100874
2018-05-24T10:12:03.735Z,100878
2018-05-24T10:14:31.951Z,100882
2018-05-24T10:17:00.167Z,100870
2018-05-24T10:19:29.808Z,100865
2018-05-24T10:21:58.377Z,100868
2018-05-24T10:24:27.258Z,100868
2018-05-24T10:26:55.472Z,100864
2018-05-24T10:29:23.663Z,100866
2018-05-24T10:31:51.877Z,100862
2018-05-24T10:34:20.092Z,100855
2018-05-24T10:36:48.285Z,100859
2018-05-24T10:39:16.525Z,100850
2018-05-24T10:41:44.717Z,100852
2018-05-24T10:44:12.910Z,100857
2018-05-24T10:46:41.119Z,100847
2018-05-24T10:49:09.304Z,100852
2018-05-24T10:51:37.490Z,100860
2018-05-24T10:54:05.739Z,100854
2018-05-24T10:56:33.940Z,100853
2018-05-24T10:59:02.141Z,100845
2018-05-24T11:01:30.341Z,100845
2018-05-24T11:03:59.268Z,100855
2018-05-24T11:06:27.510Z,100835
2018-05-24T11:08:56.272Z,100843
2018-05-24T11:11:24.477Z,100848
2018-05-24T11:13:52.682Z,100847
2018-05-24T11:16:20.951Z,100827
2018-05-24T11:18:49.920Z,100826
2018-05-24T11:21:18.542Z,100822
2018-05-24T11:23:46.785Z,100825
2018-05-24T11:26:14.957Z,100834
2018-05-24T11:28:43.154Z,100819
2018-05-24T11:31:11.384Z,100823
2018-05-24T11:33:39.581Z,100819
2018-05-24T11:36:07.792Z,100810
2018-05-24T11:38:36.022Z,100812
2018-05-24T11:41:04.241Z,100812
2018-05-24T11:43:32.628Z,100814
2018-05-24T11:46:00.708Z,100798
2018-05-24T11:48:28.910Z,100811
2018-05-24T11:50:57.094Z,100807
2018-05-24T11:53:25.307Z,100799
2018-05-24T11:55:53.499Z,100798
2018-05-24T11:58:21.813Z,100788
2018-05-24T12:00:50.064Z,100792
2018-05-24T12:03:18.236Z,100795
2018-05-24T12:05:46.969Z,100790
2018-05-24T12:08:15.315Z,100788
2018-05-24T12:10:43.539Z,100776
2018-05-24T12:13:11.744Z,100780
2018-05-24T12:15:39.958Z,100778
2018-05-24T12:18:08.507Z,100774
2018-05-24T12:20:36.719Z,100769
2018-05-24T12:23:05.007Z,100769
2018-05-24T12:25:33.211Z,100767
2018-05-24T12:28:01.432Z,100765
2018-05-24T12:30:29.672Z,100778
2018-05-24T12:32:57.852Z,100764
2018-05-24T12:35:26.932Z,100773
2018-05-24T12:37:55.574Z,100769
2018-05-24T12:40:23.772Z,100766
2018-05-24T12:42:52.808Z,100769
2018-05-24T12:45:21.022Z,100758
2018-05-24T12:47:49.210Z,100764
2018-05-24T12:50:17.467Z,100757
2018-05-24T12:52:45.711Z,100741
2018-05-24T12:55:14.519Z,100741
2018-05-24T12:57:42.712Z,100741
2018-05-24T13:00:11.506Z,100742
2018-05-24T13:02:39.766Z,100737
2018-05-24T13:05:08.446Z,100730
2018-05-24T13:07:36.642Z,100727
2018-05-24T13:10:04.875Z,100732
2018-05-24T13:12:33.149Z,100732
2018-05-24T13:15:01.420Z,100728
2018-05-24T13:17:29.597Z,100725
2018-05-24T13:19:58.925Z,100728
2018-05-24T13:22:28.172Z,100719
2018-05-24T13:24:56.880Z,100725
2018-05-24T13:27:25.056Z,100725
2018-05-24T13:29:55.006Z,100723
2018-05-24T13:32:24.116Z,100716
2018-05-24T13:34:52.325Z,100711
2018-05-24T13:37:21.984Z,100715
2018-05-24T13:39:50.970Z,100701
2018-05-24T13:42:19.203Z,100699
2018-05-24T13:44:47.397Z,100692
2018-05-24T13:47:15.581Z,100694
2018-05-24T13:49:43.840Z,100692
2018-05-24T13:52:12.040Z,100697
2018-05-24T13:54:40.251Z,100691
2018-05-24T13:57:08.525Z,100697
2018-05-24T13:59:36.753Z,100697
2018-05-24T14:02:05.074Z,100683
2018-05-24T14:04:33.273Z,100679
2018-05-24T14:07:01.515Z,100676
2018-05-24T14:09:30.589Z,100674
2018-05-24T14:11:58.785Z,100665
2018-05-24T14:14:26.999Z,100668
2018-05-24T14:16:55.958Z,100667
2018-05-24T14:19:24.157Z,100666
2018-05-24T14:21:53.702Z,100668
2018-05-24T14:24:21.959Z,100655
2018-05-24T14:26:50.178Z,100663
2018-05-24T14:29:18.374Z,100655
2018-05-24T14:31:46.590Z,100655
2018-05-24T14:34:15.023Z,100648
2018-05-24T14:36:43.229Z,100656
2018-05-24T14:39:12.417Z,100631
2018-05-24T14:41:40.931Z,100630
2018-05-24T14:44:09.810Z,100622
2018-05-24T14:46:38.494Z,100623
2018-05-24T14:49:06.693Z,100617
2018-05-24T14:51:35.479Z,100617
2018-05-24T14:54:03.729Z,100617
2018-05-24T14:56:31.984Z,100613
2018-05-24T14:59:01.078Z,100612
2018-05-24T15:01:29.493Z,100603
2018-05-24T15:03:57.768Z,100602
2018-05-24T15:06:27.122Z,100598
2018-05-24T15:08:55.709Z,100603
2018-05-24T15:11:24.297Z,100601
2018-05-24T15:13:52.910Z,100609
2018-05-24T15:16:21.240Z,100621
2018-05-24T15:18:50.380Z,100616
2018-05-24T15:21:19.959Z,100597
2018-05-24T15:23:48.158Z,100612
2018-05-24T15:26:17.419Z,100610
2018-05-24T15:28:47.079Z,100607
2018-05-24T15:31:15.280Z,100594
2018-05-24T15:33:43.549Z,100602
2018-05-24T15:36:11.730Z,100597
2018-05-24T15:38:39.915Z,100602
2018-05-24T15:41:09.050Z,100590
2018-05-24T15:43:37.887Z,100600
2018-05-24T15:46:06.103Z,100608
2018-05-24T15:48:34.337Z,100592
2018-05-24T15:51:02.530Z,100596
2018-05-24T15:53:30.747Z,100588
2018-05-24T15:55:59.579Z,100595
2018-05-24T15:58:27.767Z,100605
2018-05-24T16:00:55.953Z,100592
2018-05-24T16:03:24.158Z,100594
2018-05-24T16:05:52.391Z,100592
2018-05-24T16:08:21.962Z,100577
2018-05-24T16:10:51.079Z,100591
2018-05-24T16:13:19.904Z,100588
2018-05-24T16:15:48.170Z,100593
2018-05-24T16:18:17.202Z,100606
2018-05-24T16:20:45.653Z,100602
2018-05-24T16:23:13.916Z,100589
2018-05-24T16:25:43.712Z,100594
2018-05-24T16:28:12.318Z,100599
2018-05-24T16:30:41.303Z,100601
2018-05-24T16:33:09.858Z,100586
2018-05-24T16:35:39.588Z,100583
2018-05-24T16:38:07.811Z,100602
2018-05-24T16:40:35.997Z,100572
2018-05-24T16:43:04.238Z,100570
2018-05-24T16:45:33.331Z,100587
2018-05-24T16:48:02.458Z,100588
2018-05-24T16:50:30.664Z,100571
2018-05-24T16:52:58.891Z,100591
2018-05-24T16:55:27.152Z,100574
2018-05-24T16:57:55.339Z,100574
2018-05-24T17:00:23.570Z,100575
2018-05-24T17:02:52.522Z,100570
2018-05-24T17:05:20.786Z,100560
2018-05-24T17:07:49.036Z,100564
2018-05-24T17:10:18.112Z,100562
2018-05-24T17:12:46.316Z,100561
2018-05-24T17:15:14.565Z,100564
2018-05-24T17:17:43.898Z,100571
2018-05-24T17:20:12.111Z,100568
2018-05-24T17:22:40.344Z,100567
2018-05-24T17:25:10.066Z,100552
2018-05-24T17:27:38.877Z,100564
2018-05-24T17:30:07.187Z,100559
2018-05-24T17:32:35.590Z,100553
2018-05-24T17:35:04.532Z,100558
2018-05-24T17:37:33.622Z,100566
2018-05-24T17:40:02.291Z,100567
2018-05-24T17:42:30.510Z,100549
2018-05-24T17:45:00.284Z,100555
2018-05-24T17:47:28.511Z,100564
2018-05-24T17:49:56.720Z,100570
2018-05-24T17:52:25.014Z,100571
2018-05-24T17:54:53.242Z,100568
2018-05-24T17:57:21.417Z,100560
2018-05-24T17:59:49.735Z,100567
2018-05-24T18:02:18.967Z,100568
2018-05-24T18:04:48.033Z,100561
2018-05-24T18:07:16.274Z,100564
2018-05-24T18:09:46.269Z,100564
2018-05-24T18:12:14.503Z,100573
2018-05-24T18:14:43.510Z,100573
2018-05-24T18:17:11.748Z,100581
2018-05-24T18:19:44.874Z,100598
2018-05-24T18:22:17.467Z,100601
2018-05-24T18:24:51.202Z,100601
2018-05-24T18:27:24.318Z,100606
2018-05-24T18:29:55.591Z,100599
2018-05-24T18:32:30.178Z,100609
2018-05-24T18:35:09.340Z,100593
2018-05-24T18:37:41.082Z,100599
2018-05-24T18:40:13.628Z,100599
2018-05-24T18:42:49.612Z,100593
2018-05-24T18:45:23.728Z,100601
2018-05-24T18:48:02.226Z,100605
2018-05-24T18:50:38.550Z,100606
2018-05-24T18:58:02.981Z,100608
2018-05-24T19:00:35.311Z,100641
2018-05-24T19:03:05.809Z,100602
2018-05-24T19:05:38.507Z,100599
2018-05-24T19:08:08.478Z,100598
2018-05-24T19:10:39.961Z,100602
2018-05-24T19:13:12.511Z,100597
2018-05-24T19:15:42.811Z,100600
2018-05-24T19:18:15.075Z,100598
2018-05-24T19:20:45.369Z,100595
2018-05-24T19:23:17.661Z,100591
2018-05-24T19:25:49.174Z,100592
2018-05-24T19:28:19.439Z,100597
2018-05-24T19:30:50.604Z,100595
2018-05-24T19:33:34.895Z,100598
2018-05-24T19:36:07.196Z,100609
2018-05-24T19:38:35.597Z,100602
2018-05-24T19:41:06.769Z,100609
2018-05-24T19:43:40.734Z,100603
2018-05-24T19:46:12.685Z,100606
2018-05-24T19:48:42.829Z,100611
2018-05-24T19:51:28.900Z,100619
2018-05-24T19:54:00.313Z,100619
2018-05-24T19:56:29.271Z,100632
2018-05-24T19:59:00.048Z,100616
2018-05-24T20:01:30.738Z,100621
2018-05-24T20:04:04.213Z,100630
2018-05-24T20:06:32.772Z,100621
2018-05-24T20:09:04.842Z,100635
2018-05-24T20:11:38.643Z,100628
2018-05-24T20:14:08.061Z,100625
2018-05-24T20:16:49.609Z,100633
2018-05-24T20:19:20.170Z,100635
2018-05-24T20:24:27.805Z,100634
2018-05-24T20:26:56.518Z,100635
2018-05-24T20:29:33.192Z,100640
2018-05-24T20:32:04.695Z,100627
2018-05-24T20:34:33.853Z,100630
2018-05-24T20:37:03.028Z,100641
2018-05-24T20:39:32.081Z,100642
2018-05-24T20:42:00.958Z,100642
2018-05-24T20:44:29.136Z,100636
2018-05-24T20:46:57.366Z,100645
2018-05-24T20:49:25.650Z,100642
2018-05-24T20:51:55.958Z,100645
2018-05-24T20:54:24.196Z,100651
2018-05-24T20:56:52.433Z,100654
2018-05-24T20:59:20.638Z,100643
2018-05-24T21:01:49.057Z,100651
2018-05-24T21:04:17.394Z,100654
2018-05-24T21:06:45.968Z,100649
2018-05-24T21:09:14.188Z,100647
2018-05-24T21:11:43.727Z,100648
2018-05-24T21:14:14.481Z,100639
2018-05-24T21:16:42.694Z,100636
2018-05-24T21:19:11.001Z,100645
2018-05-24T21:21:40.451Z,100645
2018-05-24T21:24:08.663Z,100638
2018-05-24T21:26:36.844Z,100623
2018-05-24T21:29:07.727Z,100626
2018-05-24T21:31:38.394Z,100627
2018-05-24T21:34:06.582Z,100626
2018-05-24T21:36:34.833Z,100611
2018-05-24T21:39:03.220Z,100618
2018-05-24T21:41:32.306Z,100610
2018-05-24T21:44:00.499Z,100612
2018-05-24T21:46:29.611Z,100606
2018-05-24T21:48:57.808Z,100620
2018-05-24T21:51:26.908Z,100610
2018-05-24T21:53:55.825Z,100608
2018-05-24T21:56:26.050Z,100614
2018-05-24T21:58:55.281Z,100606
2018-05-24T22:01:23.477Z,100603
2018-05-24T22:03:52.005Z,100602
2018-05-24T22:06:20.987Z,100608
2018-05-24T22:08:50.110Z,100605
2018-05-24T22:11:18.614Z,100606
2018-05-24T22:13:46.832Z,100605
2018-05-24T22:16:15.823Z,100604
2018-05-24T22:18:44.776Z,100608
2018-05-24T22:21:13.020Z,100607
2018-05-24T22:23:42.308Z,100615
2018-05-24T22:26:11.433Z,100616
2018-05-24T22:28:39.648Z,100611
2018-05-24T22:31:07.829Z,100617
2018-05-24T22:33:37.191Z,100606
2018-05-24T22:36:05.468Z,100608
2018-05-24T22:38:33.652Z,100598
2018-05-24T22:41:03.472Z,100599
2018-05-24T22:43:31.704Z,100607
2018-05-24T22:46:00.012Z,100617
2018-05-24T22:48:28.561Z,100625
2018-05-24T22:50:57.776Z,100626
2018-05-24T22:53:25.969Z,100620
2018-05-24T22:55:54.171Z,100619
2018-05-24T22:58:22.388Z,100615
2018-05-24T23:00:50.602Z,100621
2018-05-24T23:03:19.411Z,100615
2018-05-24T23:05:48.484Z,100619
2018-05-24T23:08:16.686Z,100614
2018-05-24T23:10:44.897Z,100611
2018-05-24T23:13:13.697Z,100608
2018-05-24T23:15:41.928Z,100607
2018-05-24T23:18:10.943Z,100606
2018-05-24T23:20:39.419Z,100595
2018-05-24T23:23:07.741Z,100586
2018-05-24T23:25:35.948Z,100596
2018-05-24T23:28:04.151Z,100599
2018-05-24T23:30:32.358Z,100589
2018-05-24T23:33:00.906Z,100589
2018-05-24T23:35:29.112Z,100582
2018-05-24T23:37:58.059Z,100575
2018-05-24T23:40:31.778Z,100577
2018-05-24T23:43:00.017Z,100577
2018-05-24T23:45:28.230Z,100579
2018-05-24T23:47:57.033Z,100575
2018-05-24T23:50:25.241Z,100571
2018-05-24T23:52:53.532Z,100577
2018-05-24T23:55:22.742Z,100565
2018-05-24T23:57:51.842Z,100570
